Jewel Of The Seas — C6FW9 — position and weather

sailwx.info

Track history (hours):
 
Tides and Currents Weather Stations Pressure Air Temp Water Temp Dewpoint Dewpoint Depression Visibility Wind Speed Wind Dir Waves Ship Positions

Jewel Of The Seas

Operator: Royal Caribbean Cruises Ltd

Last reported at 2019-Dec-05 03:00 UTC. Time now 2019-Dec-08 10:39 UTC.
Position N 34°24' E 028°00'.

Length 290 m; draft 8.6 m.

Type: Passenger vessel. MMSI: 311583000.

Wind from 320 at 17 knots

Barometer 1022.6 mb
Air temperature 17.9 ° C
Dewpoint 11.5 ° C
Water temperature 20.5 ° C

Date/timePositionNaut miles runAvg speedWind from/ knotsBaromVisibWave heightAir tempDewpointWater temp
2019-Dec-05 03:00N 34°24' E 028°00'239 8.5 320 / 171022.6 17.911.520.5
2019-Dec-03 23:00N 37°12' E 024°30'3610.7 180 / 51020.610.8 18.812.420.5
2019-Dec-03 19:38N 37°33' E 023°53'26 9.9
2019-Dec-03 17:00N 37°56' E 023°38'0 0.0
2019-Dec-03 14:58N 37°56' E 023°38'0 0.0
2019-Dec-03 13:28N 37°56' E 023°38'0 0.0
2019-Dec-03 11:28N 37°56' E 023°38'0 0.0
2019-Dec-03 09:28N 37°56' E 023°38'0 0.0
2019-Dec-03 08:58N 37°56' E 023°38'0 0.0
2019-Dec-03 08:28N 37°56' E 023°38'0 0.0
2019-Dec-03 07:25N 37°56' E 023°38'0 0.0
2019-Dec-03 06:28N 37°56' E 023°38'0 0.0
2019-Dec-03 05:25N 37°56' E 023°38'0 0.0
2019-Dec-03 04:28N 37°56' E 023°38'0 0.0
2019-Dec-03 03:58N 37°56' E 023°38'0 0.0
2019-Dec-03 03:28N 37°56' E 023°38'27 9.2
2019-Dec-03 00:30N 37°29' E 023°42'27212.7
2019-Dec-02 03:00N 37°18' E 018°00'11115.3 170 / 121024.610.8 17.9 9.118.7
2019-Dec-01 19:43N 37°52' E 015°46'1713.9
2019-Dec-01 18:31N 38°06' E 015°35'5 2.6
2019-Dec-01 16:29N 38°12' E 015°33'0 0.0
2019-Dec-01 15:53N 38°12' E 015°33'0 0.0
2019-Dec-01 13:59N 38°12' E 015°33'0 0.0
2019-Dec-01 12:56N 38°12' E 015°33'0 0.0
2019-Dec-01 11:56N 38°12' E 015°33'0 0.0
2019-Dec-01 11:29N 38°12' E 015°33'11 3.7
2019-Dec-01 08:30N 38°22' E 015°39'32310.2
2019-Nov-30 01:00N 42°12' E 010°42'5714.1 180 / 151016.610.8 17.411.117.7
2019-Nov-29 20:54N 43°02' E 010°04'716.4
2019-Nov-29 20:30N 43°08' E 010°06'1615.8
2019-Nov-29 19:30N 43°24' E 010°08'12 7.5
2019-Nov-29 17:58N 43°33' E 010°18'0 0.0
2019-Nov-29 17:25N 43°33' E 010°18'0 0.0
2019-Nov-29 16:28N 43°33' E 010°18'0 0.0
2019-Nov-29 15:58N 43°33' E 010°18'0 0.0
2019-Nov-29 15:28N 43°33' E 010°18'0 0.0
2019-Nov-29 13:58N 43°33' E 010°18'0 0.0
2019-Nov-29 11:58N 43°33' E 010°18'0 0.0
2019-Nov-29 11:28N 43°33' E 010°18'0 0.0
2019-Nov-29 09:28N 43°33' E 010°18'0 0.0
2019-Nov-29 07:28N 43°33' E 010°18'0 0.0
2019-Nov-29 06:58N 43°33' E 010°18'0 0.0
2019-Nov-29 06:28N 43°33' E 010°18'5 3.6
2019-Nov-29 05:01N 43°29' E 010°13'612.7
2019-Nov-29 04:30N 43°24' E 010°07'1413.8
2019-Nov-29 03:31N 43°16' E 009°52'1717.0
2019-Nov-29 02:31N 43°14' E 009°29'917.4
2019-Nov-29 02:01N 43°12' E 009°17'9120.3
2019-Nov-28 21:30N 42°59' E 007°14'5916.7
2019-Nov-28 17:59N 43°06' E 005°54'0 0.1
2019-Nov-28 16:27N 43°06' E 005°54'0 0.0
2019-Nov-28 15:39N 43°06' E 005°54'0 0.0
2019-Nov-28 14:28N 43°06' E 005°54'0 0.0
2019-Nov-28 14:00N 43°06' E 005°54'0 0.0
2019-Nov-28 13:30N 43°06' E 005°54'0 0.0
2019-Nov-28 07:31N 43°06' E 005°54'15814.7
2019-Nov-27 20:48N 41°29' E 003°06'720.3
2019-Nov-27 20:29N 41°27' E 002°58'1020.3
2019-Nov-27 20:00N 41°23' E 002°47'1020.0
2019-Nov-27 19:30N 41°18' E 002°34'18 8.9
2019-Nov-27 17:29N 41°22' E 002°11'0 0.0
2019-Nov-27 16:59N 41°22' E 002°11'0 0.0
2019-Nov-27 16:29N 41°22' E 002°11'0 0.0
2019-Nov-27 15:29N 41°22' E 002°11'0 0.0
2019-Nov-27 14:29N 41°22' E 002°11'0 0.0
2019-Nov-27 13:59N 41°22' E 002°11'0 0.0
2019-Nov-27 12:59N 41°22' E 002°11'0 0.0
2019-Nov-27 11:29N 41°22' E 002°11'0 0.0
2019-Nov-27 09:59N 41°22' E 002°11'0 0.0
2019-Nov-27 09:29N 41°22' E 002°11'0 0.0
2019-Nov-27 08:29N 41°22' E 002°11'0 0.0
2019-Nov-27 06:29N 41°22' E 002°11'24 8.1
2019-Nov-27 03:30N 40°59' E 001°59'1815.7
2019-Nov-27 02:23N 40°45' E 001°45'11915.2
2019-Nov-26 18:32N 39°26' W 000°11'5 1.3
2019-Nov-26 14:28N 39°28' W 000°18'0 0.0
2019-Nov-26 12:58N 39°28' W 000°18'0 0.0
2019-Nov-26 10:30N 39°28' W 000°18'0 0.0
2019-Nov-26 09:00N 39°28' W 000°18'0 0.1
2019-Nov-26 07:30N 39°27' W 000°18'3 5.6
2019-Nov-26 07:00N 39°25' W 000°16'713.4
2019-Nov-26 06:30N 39°25' W 000°07'3815.3
2019-Nov-26 04:00N 39°30' E 000°42'43418.1 240 / 111014.6 16.813.216.7
2019-Nov-25 04:00N 41°18' E 009°54'   280 / 171003.5 5.4 14.911.217.1
Track history (hours):
 
Tides and Currents Weather Stations Pressure Air Temp Water Temp Dewpoint Dewpoint Depression Visibility Wind Speed Wind Dir Waves Ship Positions

Jewel Of The Seas

Operator: Royal Caribbean Cruises Ltd

Last reported at 2019-Dec-05 03:00 UTC. Time now 2019-Dec-08 10:39 UTC.
Position N 34°24' E 028°00'.

Length 290 m; draft 8.6 m.

Type: Passenger vessel. MMSI: 311583000.

Wind from 320 at 17 knots

Barometer 1022.6 mb
Air temperature 17.9 ° C
Dewpoint 11.5 ° C
Water temperature 20.5 ° C

Date/timePositionNaut miles runAvg speedWind from/ knotsBaromVisibWave heightAir tempDewpointWater temp
2019-Dec-05 03:00N 34°24' E 028°00'239 8.5 320 / 171022.6 17.911.520.5
2019-Dec-03 23:00N 37°12' E 024°30'3610.7 180 / 51020.610.8 18.812.420.5
2019-Dec-03 19:38N 37°33' E 023°53'26 9.9
2019-Dec-03 17:00N 37°56' E 023°38'0 0.0
2019-Dec-03 14:58N 37°56' E 023°38'0 0.0
2019-Dec-03 13:28N 37°56' E 023°38'0 0.0
2019-Dec-03 11:28N 37°56' E 023°38'0 0.0
2019-Dec-03 09:28N 37°56' E 023°38'0 0.0
2019-Dec-03 08:58N 37°56' E 023°38'0 0.0
2019-Dec-03 08:28N 37°56' E 023°38'0 0.0
2019-Dec-03 07:25N 37°56' E 023°38'0 0.0
2019-Dec-03 06:28N 37°56' E 023°38'0 0.0
2019-Dec-03 05:25N 37°56' E 023°38'0 0.0
2019-Dec-03 04:28N 37°56' E 023°38'0 0.0
2019-Dec-03 03:58N 37°56' E 023°38'0 0.0
2019-Dec-03 03:28N 37°56' E 023°38'27 9.2
2019-Dec-03 00:30N 37°29' E 023°42'27212.7
2019-Dec-02 03:00N 37°18' E 018°00'11115.3 170 / 121024.610.8 17.9 9.118.7
2019-Dec-01 19:43N 37°52' E 015°46'1713.9
2019-Dec-01 18:31N 38°06' E 015°35'5 2.6
2019-Dec-01 16:29N 38°12' E 015°33'0 0.0
2019-Dec-01 15:53N 38°12' E 015°33'0 0.0
2019-Dec-01 13:59N 38°12' E 015°33'0 0.0
2019-Dec-01 12:56N 38°12' E 015°33'0 0.0
2019-Dec-01 11:56N 38°12' E 015°33'0 0.0
2019-Dec-01 11:29N 38°12' E 015°33'11 3.7
2019-Dec-01 08:30N 38°22' E 015°39'32310.2
2019-Nov-30 01:00N 42°12' E 010°42'5714.1 180 / 151016.610.8 17.411.117.7
2019-Nov-29 20:54N 43°02' E 010°04'716.4
2019-Nov-29 20:30N 43°08' E 010°06'1615.8
2019-Nov-29 19:30N 43°24' E 010°08'12 7.5
2019-Nov-29 17:58N 43°33' E 010°18'0 0.0
2019-Nov-29 17:25N 43°33' E 010°18'0 0.0
2019-Nov-29 16:28N 43°33' E 010°18'0 0.0
2019-Nov-29 15:58N 43°33' E 010°18'0 0.0
2019-Nov-29 15:28N 43°33' E 010°18'0 0.0
2019-Nov-29 13:58N 43°33' E 010°18'0 0.0
2019-Nov-29 11:58N 43°33' E 010°18'0 0.0
2019-Nov-29 11:28N 43°33' E 010°18'0 0.0
2019-Nov-29 09:28N 43°33' E 010°18'0 0.0
2019-Nov-29 07:28N 43°33' E 010°18'0 0.0
2019-Nov-29 06:58N 43°33' E 010°18'0 0.0
2019-Nov-29 06:28N 43°33' E 010°18'5 3.6
2019-Nov-29 05:01N 43°29' E 010°13'612.7
2019-Nov-29 04:30N 43°24' E 010°07'1413.8
2019-Nov-29 03:31N 43°16' E 009°52'1717.0
2019-Nov-29 02:31N 43°14' E 009°29'917.4
2019-Nov-29 02:01N 43°12' E 009°17'9120.3
2019-Nov-28 21:30N 42°59' E 007°14'5916.7
2019-Nov-28 17:59N 43°06' E 005°54'0 0.1
2019-Nov-28 16:27N 43°06' E 005°54'0 0.0
2019-Nov-28 15:39N 43°06' E 005°54'0 0.0
2019-Nov-28 14:28N 43°06' E 005°54'0 0.0
2019-Nov-28 14:00N 43°06' E 005°54'0 0.0
2019-Nov-28 13:30N 43°06' E 005°54'0 0.0
2019-Nov-28 07:31N 43°06' E 005°54'15814.7
2019-Nov-27 20:48N 41°29' E 003°06'720.3
2019-Nov-27 20:29N 41°27' E 002°58'1020.3
2019-Nov-27 20:00N 41°23' E 002°47'1020.0
2019-Nov-27 19:30N 41°18' E 002°34'18 8.9
2019-Nov-27 17:29N 41°22' E 002°11'0 0.0
2019-Nov-27 16:59N 41°22' E 002°11'0 0.0
2019-Nov-27 16:29N 41°22' E 002°11'0 0.0
2019-Nov-27 15:29N 41°22' E 002°11'0 0.0
2019-Nov-27 14:29N 41°22' E 002°11'0 0.0
2019-Nov-27 13:59N 41°22' E 002°11'0 0.0
2019-Nov-27 12:59N 41°22' E 002°11'0 0.0
2019-Nov-27 11:29N 41°22' E 002°11'0 0.0
2019-Nov-27 09:59N 41°22' E 002°11'0 0.0
2019-Nov-27 09:29N 41°22' E 002°11'0 0.0
2019-Nov-27 08:29N 41°22' E 002°11'0 0.0
2019-Nov-27 06:29N 41°22' E 002°11'24 8.1
2019-Nov-27 03:30N 40°59' E 001°59'1815.7
2019-Nov-27 02:23N 40°45' E 001°45'11915.2
2019-Nov-26 18:32N 39°26' W 000°11'5 1.3
2019-Nov-26 14:28N 39°28' W 000°18'0 0.0
2019-Nov-26 12:58N 39°28' W 000°18'0 0.0
2019-Nov-26 10:30N 39°28' W 000°18'0 0.0
2019-Nov-26 09:00N 39°28' W 000°18'0 0.1
2019-Nov-26 07:30N 39°27' W 000°18'3 5.6
2019-Nov-26 07:00N 39°25' W 000°16'713.4
2019-Nov-26 06:30N 39°25' W 000°07'3815.3
2019-Nov-26 04:00N 39°30' E 000°42'43418.1 240 / 111014.6 16.813.216.7
2019-Nov-25 04:00N 41°18' E 009°54'   280 / 171003.5 5.4 14.911.217.1

Dump ship's entire track history